createdAt,value
2018-04-18T00:01:45.930Z,12.30
2018-04-18T00:04:13.742Z,12.30
2018-04-18T00:06:41.252Z,12.30
2018-04-18T00:09:08.883Z,12.30
2018-04-18T00:11:36.410Z,12.30
2018-04-18T00:14:04.010Z,12.30
2018-04-18T00:16:31.625Z,12.30
2018-04-18T00:18:59.211Z,12.30
2018-04-18T00:21:26.842Z,12.30
2018-04-18T00:23:54.640Z,12.30
2018-04-18T00:26:22.140Z,12.20
2018-04-18T00:28:49.738Z,12.20
2018-04-18T00:31:17.233Z,12.20
2018-04-18T00:33:46.265Z,12.10
2018-04-18T00:36:13.784Z,12.10
2018-04-18T00:38:43.045Z,12.00
2018-04-18T00:41:10.560Z,12.00
2018-04-18T00:43:38.121Z,12.00
2018-04-18T00:46:05.998Z,12.00
2018-04-18T00:48:33.603Z,12.00
2018-04-18T00:51:01.665Z,11.90
2018-04-18T00:53:29.181Z,11.90
2018-04-18T00:55:57.345Z,11.90
2018-04-18T00:58:25.724Z,11.90
2018-04-18T01:00:54.224Z,11.90
2018-04-18T01:03:21.768Z,11.80
2018-04-18T01:05:50.037Z,11.80
2018-04-18T01:08:17.645Z,11.80
2018-04-18T01:10:45.156Z,11.80
2018-04-18T01:13:13.459Z,11.80
2018-04-18T01:15:41.067Z,11.70
2018-04-18T01:18:08.627Z,11.70
2018-04-18T01:20:37.161Z,11.70
2018-04-18T01:23:04.914Z,11.70
2018-04-18T01:25:33.328Z,11.60
2018-04-18T01:28:00.845Z,11.60
2018-04-18T01:30:29.310Z,11.60
2018-04-18T01:32:56.809Z,11.60
2018-04-18T01:35:24.529Z,11.60
2018-04-18T01:37:52.067Z,11.50
2018-04-18T01:40:19.631Z,11.50
2018-04-18T01:42:47.152Z,11.50
2018-04-18T01:45:14.665Z,11.50
2018-04-18T01:47:42.583Z,11.50
2018-04-18T01:50:10.171Z,11.50
2018-04-18T01:52:37.756Z,11.50
2018-04-18T01:55:05.294Z,11.50
2018-04-18T01:57:33.881Z,11.40
2018-04-18T02:00:01.402Z,11.50
2018-04-18T02:02:28.964Z,11.50
2018-04-18T02:04:56.582Z,11.40
2018-04-18T02:07:24.112Z,11.40
2018-04-18T02:09:51.640Z,11.40
2018-04-18T02:12:19.350Z,11.40
2018-04-18T02:14:47.381Z,11.40
2018-04-18T02:17:15.581Z,11.30
2018-04-18T02:19:43.153Z,11.30
2018-04-18T02:22:10.653Z,11.30
2018-04-18T02:24:38.905Z,11.30
2018-04-18T02:27:07.260Z,11.20
2018-04-18T02:29:34.825Z,11.20
2018-04-18T02:32:03.480Z,11.20
2018-04-18T02:34:31.157Z,11.20
2018-04-18T02:36:58.677Z,11.20
2018-04-18T02:39:26.200Z,11.10
2018-04-18T02:41:53.788Z,11.10
2018-04-18T02:44:21.586Z,11.10
2018-04-18T02:46:49.937Z,11.10
2018-04-18T02:49:17.433Z,11.00
2018-04-18T02:51:44.935Z,11.10
2018-04-18T02:54:13.631Z,11.00
2018-04-18T02:56:41.319Z,11.00
2018-04-18T02:59:09.297Z,11.00
2018-04-18T03:01:37.579Z,11.00
2018-04-18T03:04:05.102Z,11.00
2018-04-18T03:06:32.803Z,11.00
2018-04-18T03:09:01.316Z,11.00
2018-04-18T03:11:28.984Z,10.90
2018-04-18T03:13:57.112Z,11.00
2018-04-18T03:16:24.720Z,10.90
2018-04-18T03:18:52.279Z,10.90
2018-04-18T03:21:20.388Z,10.90
2018-04-18T03:23:47.926Z,10.90
2018-04-18T03:26:15.473Z,10.90
2018-04-18T03:28:43.033Z,10.90
2018-04-18T03:31:10.612Z,10.90
2018-04-18T03:33:38.146Z,11.00
2018-04-18T03:36:05.697Z,11.00
2018-04-18T03:38:33.413Z,10.90
2018-04-18T03:41:01.033Z,10.90
2018-04-18T03:43:29.285Z,10.90
2018-04-18T03:45:56.839Z,10.90
2018-04-18T03:48:24.389Z,10.90
2018-04-18T03:50:51.935Z,10.90
2018-04-18T03:53:19.690Z,10.90
2018-04-18T03:55:47.234Z,11.00
2018-04-18T03:58:15.618Z,11.00
2018-04-18T04:00:43.520Z,11.00
2018-04-18T04:03:11.249Z,11.00
2018-04-18T04:05:39.154Z,11.10
2018-04-18T04:08:06.661Z,11.10
2018-04-18T04:10:34.482Z,11.20
2018-04-18T04:13:02.114Z,11.30
2018-04-18T04:15:29.771Z,11.30
2018-04-18T04:18:09.099Z,11.30
2018-04-18T04:20:48.341Z,11.40
2018-04-18T04:23:27.799Z,11.50
2018-04-18T04:25:55.409Z,11.60
2018-04-18T04:28:24.435Z,11.90
2018-04-18T04:30:52.719Z,12.10
2018-04-18T04:33:20.228Z,12.00
2018-04-18T04:35:48.661Z,12.20
2018-04-18T04:38:16.343Z,12.40
2018-04-18T04:40:43.904Z,12.60
2018-04-18T04:43:12.078Z,12.70
2018-04-18T04:45:39.710Z,12.90
2018-04-18T04:48:07.586Z,13.20
2018-04-18T04:50:35.310Z,13.70
2018-04-18T04:53:03.082Z,14.40
2018-04-18T04:55:30.684Z,15.10
2018-04-18T04:57:58.262Z,15.60
2018-04-18T05:00:25.778Z,15.80
2018-04-18T05:02:54.204Z,17.30
2018-04-18T05:05:21.936Z,17.20
2018-04-18T05:07:50.231Z,18.90
2018-04-18T05:10:17.829Z,18.80
2018-04-18T05:12:45.347Z,19.30
2018-04-18T05:15:13.011Z,20.10
2018-04-18T05:17:41.132Z,21.00
2018-04-18T05:20:09.494Z,22.50
2018-04-18T05:22:37.229Z,22.40
2018-04-18T05:25:04.769Z,23.10
2018-04-18T05:27:32.568Z,23.60
2018-04-18T05:30:00.309Z,24.30
2018-04-18T05:32:27.923Z,24.80
2018-04-18T05:34:55.655Z,25.20
2018-04-18T05:37:23.193Z,25.40
2018-04-18T05:39:50.767Z,24.80
2018-04-18T05:42:18.469Z,25.10
2018-04-18T05:44:46.144Z,25.70
2018-04-18T05:47:14.103Z,26.20
2018-04-18T05:49:41.805Z,26.60
2018-04-18T05:52:10.088Z,27.80
2018-04-18T05:54:37.606Z,27.70
2018-04-18T05:57:05.341Z,28.20
2018-04-18T05:59:32.903Z,28.70
2018-04-18T06:02:00.428Z,29.00
2018-04-18T06:04:27.997Z,29.50
2018-04-18T06:06:55.558Z,30.10
2018-04-18T06:09:23.435Z,30.60
2018-04-18T06:11:51.031Z,31.40
2018-04-18T06:14:18.698Z,31.80
2018-04-18T06:16:46.251Z,32.60
2018-04-18T06:19:13.941Z,32.70
2018-04-18T06:21:42.120Z,33.10
2018-04-18T06:24:10.223Z,33.30
2018-04-18T06:26:38.154Z,33.60
2018-04-18T06:29:06.505Z,33.20
2018-04-18T06:31:34.034Z,33.10
2018-04-18T06:34:01.608Z,33.40
2018-04-18T06:36:29.170Z,33.30
2018-04-18T06:38:57.391Z,33.20
2018-04-18T06:41:25.706Z,33.40
2018-04-18T06:43:53.238Z,33.40
2018-04-18T06:46:21.812Z,33.80
2018-04-18T06:48:49.414Z,33.80
2018-04-18T06:51:17.082Z,33.40
2018-04-18T06:53:45.204Z,33.00
2018-04-18T06:56:13.654Z,31.90
2018-04-18T06:58:41.291Z,31.90
2018-04-18T07:01:09.270Z,31.80
2018-04-18T07:03:37.137Z,31.50
2018-04-18T07:06:04.859Z,31.10
2018-04-18T07:08:34.032Z,31.00
2018-04-18T07:11:01.580Z,31.00
2018-04-18T07:13:29.160Z,30.90
2018-04-18T07:15:56.690Z,30.70
2018-04-18T07:18:24.254Z,30.50
2018-04-18T07:20:51.771Z,30.60
2018-04-18T07:23:19.459Z,30.40
2018-04-18T07:25:46.982Z,30.00
2018-04-18T07:28:15.368Z,30.50
2018-04-18T07:30:43.645Z,30.50
2018-04-18T07:33:12.184Z,30.30
2018-04-18T07:35:39.938Z,30.30
2018-04-18T07:38:08.366Z,30.20
2018-04-18T07:40:36.019Z,30.40
2018-04-18T07:43:03.929Z,30.40
2018-04-18T07:45:31.514Z,30.00
2018-04-18T07:47:59.562Z,29.50
2018-04-18T07:50:27.085Z,29.70
2018-04-18T07:52:55.692Z,30.20
2018-04-18T07:55:23.307Z,30.10
2018-04-18T07:57:50.900Z,30.40
2018-04-18T08:00:19.510Z,29.20
2018-04-18T08:02:47.046Z,29.20
2018-04-18T08:05:14.589Z,28.90
2018-04-18T08:07:43.660Z,28.20
2018-04-18T08:10:11.317Z,28.10
2018-04-18T08:12:38.842Z,28.10
2018-04-18T08:15:06.380Z,28.00
2018-04-18T08:17:33.911Z,27.80
2018-04-18T08:20:01.501Z,27.30
2018-04-18T08:22:29.582Z,27.10
2018-04-18T08:24:57.103Z,27.00
2018-04-18T08:27:24.638Z,26.70
2018-04-18T08:29:52.364Z,26.90
2018-04-18T08:32:19.911Z,26.70
2018-04-18T08:34:47.463Z,26.20
2018-04-18T08:37:15.965Z,26.30
2018-04-18T08:39:44.262Z,26.10
2018-04-18T08:42:11.864Z,26.10
2018-04-18T08:44:39.709Z,26.20
2018-04-18T08:47:07.285Z,26.20
2018-04-18T08:49:34.830Z,26.20
2018-04-18T08:52:02.480Z,26.20
2018-04-18T08:54:30.056Z,26.20
2018-04-18T08:56:57.560Z,25.80
2018-04-18T08:59:25.100Z,25.90
2018-04-18T09:01:52.642Z,25.80
2018-04-18T09:04:20.207Z,25.60
2018-04-18T09:06:47.738Z,25.60
2018-04-18T09:09:15.315Z,25.30
2018-04-18T09:11:43.153Z,25.20
2018-04-18T09:14:10.703Z,25.10
2018-04-18T09:16:38.390Z,25.20
2018-04-18T09:19:05.904Z,24.90
2018-04-18T09:21:33.595Z,24.60
2018-04-18T09:24:01.475Z,24.30
2018-04-18T09:26:29.092Z,24.20
2018-04-18T09:28:57.021Z,24.30
2018-04-18T09:31:24.792Z,24.20
2018-04-18T09:33:52.351Z,24.10
2018-04-18T09:36:19.867Z,24.30
2018-04-18T09:38:47.437Z,24.40
2018-04-18T09:41:15.041Z,24.30
2018-04-18T09:43:42.709Z,24.30
2018-04-18T09:46:10.895Z,24.30
2018-04-18T09:48:38.586Z,24.30
2018-04-18T09:51:06.869Z,24.30
2018-04-18T09:53:34.885Z,24.30
2018-04-18T09:56:02.990Z,24.30
2018-04-18T09:58:31.388Z,24.40
2018-04-18T10:00:58.910Z,24.30
2018-04-18T10:03:27.268Z,24.30
2018-04-18T10:05:54.778Z,24.30
2018-04-18T10:08:22.370Z,24.30
2018-04-18T10:10:49.910Z,24.20
2018-04-18T10:13:17.589Z,24.20
2018-04-18T10:15:45.173Z,24.20
2018-04-18T10:18:12.731Z,24.20
2018-04-18T10:20:40.449Z,24.30
2018-04-18T10:23:09.442Z,24.20
2018-04-18T10:25:36.982Z,24.20
2018-04-18T10:28:04.563Z,24.20
2018-04-18T10:30:32.181Z,24.20
2018-04-18T10:32:59.854Z,24.20
2018-04-18T10:35:27.651Z,24.20
2018-04-18T10:37:56.348Z,23.90
2018-04-18T10:40:23.954Z,23.90
2018-04-18T10:42:51.559Z,23.90
2018-04-18T10:45:19.144Z,24.00
2018-04-18T10:47:46.710Z,24.10
2018-04-18T10:50:14.382Z,24.10
2018-04-18T10:52:41.972Z,24.10
2018-04-18T10:55:09.873Z,24.10
2018-04-18T10:57:37.725Z,24.00
2018-04-18T11:00:05.481Z,24.10
2018-04-18T11:02:33.978Z,24.10
2018-04-18T11:05:02.289Z,24.10
2018-04-18T11:07:29.991Z,24.10
2018-04-18T11:09:57.609Z,24.20
2018-04-18T11:12:25.319Z,24.10
2018-04-18T11:14:52.834Z,24.20
2018-04-18T11:17:20.377Z,24.20
2018-04-18T11:19:47.921Z,24.20
2018-04-18T11:22:15.435Z,24.10
2018-04-18T11:24:43.172Z,24.10
2018-04-18T11:27:10.671Z,24.10
2018-04-18T11:29:38.219Z,24.10
2018-04-18T11:32:06.996Z,24.10
2018-04-18T11:34:34.575Z,24.00
2018-04-18T11:37:02.175Z,23.90
2018-04-18T11:39:29.764Z,24.00
2018-04-18T11:41:57.412Z,24.00
2018-04-18T11:44:24.957Z,24.00
2018-04-18T11:46:54.187Z,24.10
2018-04-18T11:49:21.739Z,24.00
2018-04-18T11:51:49.299Z,24.00
2018-04-18T11:54:16.867Z,24.00
2018-04-18T11:56:44.419Z,24.00
2018-04-18T11:59:12.338Z,24.00
2018-04-18T12:01:39.873Z,23.90
2018-04-18T12:04:07.413Z,23.90
2018-04-18T12:06:34.987Z,24.00
2018-04-18T12:09:02.981Z,24.00
2018-04-18T12:11:30.506Z,24.10
2018-04-18T12:13:58.051Z,24.10
2018-04-18T12:16:25.713Z,24.10
2018-04-18T12:18:53.264Z,24.10
2018-04-18T12:21:21.108Z,24.10
2018-04-18T12:23:48.634Z,24.10
2018-04-18T12:26:16.201Z,24.10
2018-04-18T12:28:43.794Z,24.00
2018-04-18T12:31:11.406Z,24.00
2018-04-18T12:33:38.982Z,24.10
2018-04-18T12:36:07.664Z,24.10
2018-04-18T12:38:36.040Z,24.10
2018-04-18T12:41:03.688Z,24.10
2018-04-18T12:43:31.265Z,24.20
2018-04-18T12:45:58.926Z,24.10
2018-04-18T12:48:26.509Z,24.20
2018-04-18T12:50:54.046Z,24.20
2018-04-18T12:53:21.569Z,24.20
2018-04-18T12:55:49.176Z,24.20
2018-04-18T12:58:17.109Z,24.10
2018-04-18T13:00:44.686Z,24.10
2018-04-18T13:03:12.240Z,24.10
2018-04-18T13:05:40.121Z,24.10
2018-04-18T13:08:07.776Z,24.10
2018-04-18T13:10:35.420Z,24.10
2018-04-18T13:13:02.950Z,24.10
2018-04-18T13:15:30.627Z,24.10
2018-04-18T13:17:59.055Z,24.10
2018-04-18T13:20:26.645Z,24.00
2018-04-18T13:22:54.169Z,24.10
2018-04-18T13:25:21.808Z,24.10
2018-04-18T13:27:49.548Z,24.10
2018-04-18T13:30:17.865Z,24.10
2018-04-18T13:32:45.401Z,24.10
2018-04-18T13:35:12.955Z,24.10
2018-04-18T13:37:41.483Z,24.10
2018-04-18T13:40:09.111Z,24.10
2018-04-18T13:42:36.635Z,24.20
2018-04-18T13:45:04.189Z,24.10
2018-04-18T13:47:31.748Z,24.10
2018-04-18T13:50:00.263Z,24.00
2018-04-18T13:52:27.841Z,24.00
2018-04-18T13:54:55.475Z,24.00
2018-04-18T13:57:22.974Z,24.00
2018-04-18T13:59:50.604Z,24.00
2018-04-18T14:02:18.960Z,24.00
2018-04-18T14:04:46.542Z,24.00
2018-04-18T14:07:14.838Z,24.00
2018-04-18T14:09:43.341Z,24.00
2018-04-18T14:12:10.862Z,23.90
2018-04-18T14:14:38.448Z,24.00
2018-04-18T14:17:06.209Z,24.00
2018-04-18T14:19:33.774Z,24.00
2018-04-18T14:22:01.432Z,23.90
2018-04-18T14:24:30.155Z,23.90
2018-04-18T14:26:57.781Z,23.90
2018-04-18T14:29:25.540Z,23.90
2018-04-18T14:31:53.052Z,23.90
2018-04-18T14:34:21.664Z,23.90
2018-04-18T14:36:49.277Z,23.90
2018-04-18T14:39:17.573Z,23.80
2018-04-18T14:41:46.013Z,23.80
2018-04-18T14:44:13.586Z,23.80
2018-04-18T14:46:41.198Z,23.80
2018-04-18T14:49:08.959Z,23.80
2018-04-18T14:51:37.326Z,23.80
2018-04-18T14:54:05.138Z,23.80
2018-04-18T14:56:32.683Z,23.80
2018-04-18T14:59:00.189Z,23.80
2018-04-18T15:01:27.786Z,23.70
2018-04-18T15:03:56.150Z,23.70
2018-04-18T15:06:23.854Z,23.70
2018-04-18T15:08:51.381Z,23.70
2018-04-18T15:11:19.696Z,23.70
2018-04-18T15:13:47.218Z,23.70
2018-04-18T15:16:14.752Z,23.70
2018-04-18T15:18:42.267Z,23.60
2018-04-18T15:21:09.869Z,23.60
2018-04-18T15:23:37.420Z,23.60
2018-04-18T15:26:04.982Z,23.50
2018-04-18T15:28:32.698Z,23.40
2018-04-18T15:31:00.278Z,23.40
2018-04-18T15:33:27.837Z,23.40
2018-04-18T15:35:55.411Z,23.40
2018-04-18T15:38:22.926Z,23.40
2018-04-18T15:40:51.217Z,23.30
2018-04-18T15:43:19.506Z,23.30
2018-04-18T15:45:47.042Z,23.30
2018-04-18T15:48:15.015Z,23.30
2018-04-18T15:50:43.891Z,23.30
2018-04-18T15:53:11.533Z,23.20
2018-04-18T15:55:39.486Z,23.30
2018-04-18T15:58:07.717Z,23.20
2018-04-18T16:00:36.337Z,23.20
2018-04-18T16:03:03.851Z,23.20
2018-04-18T16:05:32.144Z,23.10
2018-04-18T16:07:59.682Z,23.10
2018-04-18T16:10:27.981Z,23.10
2018-04-18T16:12:55.546Z,23.00
2018-04-18T16:15:23.092Z,23.10
2018-04-18T16:17:51.723Z,23.00
2018-04-18T16:20:19.314Z,22.90
2018-04-18T16:22:47.600Z,22.90
2018-04-18T16:25:16.060Z,22.80
2018-04-18T16:27:43.686Z,22.80
2018-04-18T16:33:20.222Z,22.70
2018-04-18T16:35:48.456Z,22.70
2018-04-18T16:38:15.973Z,22.60
2018-04-18T16:40:44.311Z,22.50
2018-04-18T16:43:12.042Z,22.50
2018-04-18T16:45:40.769Z,22.50
2018-04-18T16:48:08.884Z,22.40
2018-04-18T16:50:36.470Z,22.40
2018-04-18T16:53:03.993Z,22.40
2018-04-18T16:55:31.545Z,22.30
2018-04-18T16:57:59.341Z,22.30
2018-04-18T17:00:26.925Z,22.20
2018-04-18T17:02:54.550Z,22.20
2018-04-18T17:05:23.023Z,22.10
2018-04-18T17:07:50.902Z,22.10
2018-04-18T17:10:19.211Z,22.00
2018-04-18T17:12:47.033Z,22.00
2018-04-18T17:15:14.965Z,21.90
2018-04-18T17:17:42.526Z,21.90
2018-04-18T17:20:10.093Z,21.80
2018-04-18T17:22:38.455Z,21.70
2018-04-18T17:25:06.204Z,21.70
2018-04-18T17:27:35.052Z,21.60
2018-04-18T17:30:02.823Z,21.60
2018-04-18T17:32:30.408Z,21.50
2018-04-18T17:34:58.059Z,21.40
2018-04-18T17:37:26.487Z,21.30
2018-04-18T17:39:54.054Z,21.30
2018-04-18T17:42:21.691Z,21.20
2018-04-18T17:44:49.443Z,21.10
2018-04-18T17:47:16.967Z,21.10
2018-04-18T17:49:44.513Z,21.00
2018-04-18T17:52:12.057Z,20.90
2018-04-18T17:54:39.598Z,20.90
2018-04-18T17:57:07.121Z,20.80
2018-04-18T17:59:34.637Z,20.70
2018-04-18T18:02:02.163Z,20.60
2018-04-18T18:07:05.249Z,20.30
2018-04-18T18:09:32.866Z,20.30
2018-04-18T18:12:00.479Z,20.30
2018-04-18T18:14:28.049Z,20.20
2018-04-18T18:16:55.611Z,20.20
2018-04-18T18:19:23.348Z,20.10
2018-04-18T18:21:51.288Z,20.10
2018-04-18T18:24:19.661Z,20.00
2018-04-18T18:26:47.225Z,20.00
2018-04-18T18:29:14.940Z,19.90
2018-04-18T18:31:42.506Z,19.80
2018-04-18T18:34:10.112Z,19.80
2018-04-18T18:36:37.916Z,19.70
2018-04-18T18:39:05.683Z,19.60
2018-04-18T18:41:33.583Z,19.60
2018-04-18T18:44:01.186Z,19.50
2018-04-18T18:46:28.725Z,19.40
2018-04-18T18:48:56.381Z,19.40
2018-04-18T18:51:23.944Z,19.30
2018-04-18T18:53:51.465Z,19.20
2018-04-18T18:56:18.986Z,19.20
2018-04-18T18:58:47.554Z,19.20
2018-04-18T19:01:15.153Z,19.20
2018-04-18T19:03:43.432Z,19.20
2018-04-18T19:06:11.063Z,19.20
2018-04-18T19:08:38.752Z,19.10
2018-04-18T19:11:07.049Z,19.00
2018-04-18T19:13:34.656Z,19.00
2018-04-18T19:16:02.614Z,18.90
2018-04-18T19:18:30.460Z,18.90
2018-04-18T19:20:58.712Z,18.80
2018-04-18T19:23:26.286Z,18.70
2018-04-18T19:25:53.798Z,18.70
2018-04-18T19:28:21.577Z,18.70
2018-04-18T19:30:49.632Z,18.60
2018-04-18T19:33:17.165Z,18.60
2018-04-18T19:35:44.710Z,18.50
2018-04-18T19:38:12.416Z,18.50
2018-04-18T19:40:39.968Z,18.40
2018-04-18T19:43:07.714Z,18.40
2018-04-18T19:45:38.381Z,18.40
2018-04-18T19:48:05.992Z,18.30
2018-04-18T19:50:33.611Z,18.20
2018-04-18T19:53:01.520Z,18.20
2018-04-18T19:55:29.130Z,18.20
2018-04-18T19:57:56.675Z,18.10
2018-04-18T20:00:24.227Z,18.10
2018-04-18T20:02:51.901Z,18.00
2018-04-18T20:05:19.440Z,18.00
2018-04-18T20:07:47.143Z,17.90
2018-04-18T20:10:14.816Z,17.90
2018-04-18T20:12:42.385Z,17.80
2018-04-18T20:15:11.492Z,17.70
2018-04-18T20:17:39.041Z,17.70
2018-04-18T20:20:06.984Z,17.70
2018-04-18T20:22:34.723Z,17.70
2018-04-18T20:25:02.299Z,17.60
2018-04-18T20:27:29.837Z,17.60
2018-04-18T20:29:57.600Z,17.60
2018-04-18T20:32:25.129Z,17.60
2018-04-18T20:34:52.806Z,17.50
2018-04-18T20:37:21.116Z,17.50
2018-04-18T20:39:48.643Z,17.50
2018-04-18T20:42:16.765Z,17.40
2018-04-18T20:44:44.802Z,17.40
2018-04-18T20:47:12.347Z,17.40
2018-04-18T20:49:39.965Z,17.30
2018-04-18T20:52:08.356Z,17.20
2018-04-18T20:54:36.702Z,17.20
2018-04-18T20:57:04.223Z,17.20
2018-04-18T20:59:31.932Z,17.10
2018-04-18T21:02:00.241Z,17.00
2018-04-18T21:04:28.625Z,17.00
2018-04-18T21:06:56.179Z,17.00
2018-04-18T21:09:23.714Z,17.00
2018-04-18T21:11:51.423Z,17.00
2018-04-18T21:14:19.006Z,16.90
2018-04-18T21:16:46.621Z,16.90
2018-04-18T21:19:14.299Z,16.90
2018-04-18T21:21:42.156Z,16.80
2018-04-18T21:24:09.699Z,16.80
2018-04-18T21:26:38.885Z,16.70
2018-04-18T21:29:06.382Z,16.70
2018-04-18T21:31:33.931Z,16.70
2018-04-18T21:34:02.440Z,16.70
2018-04-18T21:36:30.997Z,16.70
2018-04-18T21:38:58.519Z,16.60
2018-04-18T21:41:26.070Z,16.60
2018-04-18T21:43:53.732Z,16.60
2018-04-18T21:46:21.315Z,16.50
2018-04-18T21:48:48.822Z,16.50
2018-04-18T21:51:16.389Z,16.50
2018-04-18T21:53:43.937Z,16.40
2018-04-18T21:56:11.498Z,16.40
2018-04-18T21:58:41.082Z,16.40
2018-04-18T22:01:09.455Z,16.30
2018-04-18T22:03:38.432Z,16.30
2018-04-18T22:06:05.982Z,16.30
2018-04-18T22:08:34.613Z,16.30
2018-04-18T22:11:02.990Z,16.20
2018-04-18T22:13:30.880Z,16.20
2018-04-18T22:15:58.417Z,16.20
2018-04-18T22:18:25.970Z,16.10
2018-04-18T22:20:53.634Z,16.10
2018-04-18T22:23:21.253Z,16.00
2018-04-18T22:25:48.954Z,16.00
2018-04-18T22:28:17.246Z,15.90
2018-04-18T22:30:44.797Z,15.90
2018-04-18T22:33:12.585Z,15.90
2018-04-18T22:35:40.142Z,15.90
2018-04-18T22:38:08.377Z,15.90
2018-04-18T22:40:35.895Z,15.90
2018-04-18T22:43:04.342Z,15.90
2018-04-18T22:45:31.894Z,15.80
2018-04-18T22:47:59.591Z,15.80
2018-04-18T22:50:27.161Z,15.80
2018-04-18T22:52:54.695Z,15.70
2018-04-18T22:55:22.225Z,15.70
2018-04-18T22:57:52.734Z,15.70
2018-04-18T23:00:22.009Z,15.60
2018-04-18T23:02:49.647Z,15.60
2018-04-18T23:05:17.176Z,15.60
2018-04-18T23:07:45.503Z,15.60
2018-04-18T23:10:13.074Z,15.60
2018-04-18T23:12:40.756Z,15.60
2018-04-18T23:15:08.311Z,15.60
2018-04-18T23:17:36.028Z,15.50
2018-04-18T23:20:03.591Z,15.50
2018-04-18T23:22:35.171Z,15.50
2018-04-18T23:25:02.742Z,15.40
2018-04-18T23:27:30.281Z,15.40
2018-04-18T23:29:57.853Z,15.40
2018-04-18T23:32:25.394Z,15.30
2018-04-18T23:34:53.444Z,15.30
2018-04-18T23:37:21.233Z,15.30
2018-04-18T23:39:48.971Z,15.30
2018-04-18T23:42:16.811Z,15.30
2018-04-18T23:44:44.536Z,15.30
2018-04-18T23:47:12.303Z,15.30
2018-04-18T23:49:39.814Z,15.30
2018-04-18T23:52:08.087Z,15.30
2018-04-18T23:54:39.100Z,15.20
2018-04-18T23:57:06.606Z,15.20
2018-04-18T23:59:34.128Z,15.20
